UAOO

Kzyl-Orda Southwest Airport

Kzyl-Orda, Kazakhstan
TAF COR UAOO 251700Z 2518/2603 05004MPS CAVOK BECMG 2601/2603 07010G15MPS
Issued Valid From Valid To
Sep-25 @ 17:00 UTC
(2 hours ago)
Sep-25 @ 18:00 UTC
(an hour ago)
Sep-26 @ 03:00 UTC
(in 8 hours)
Sep-25 @ 18:00 to Sep-26 @ 01:00
TAF COR UAOO 251700Z 2518/2603 05004MPS CAVOK
Wind Visibility Clouds Conditions
50° at 8 knots 10,000+ meters
  • No significant clouds
Becoming Sep-26 @ 01:00 to Sep-26 @ 03:00
BECMG 2601/2603 07010G15MPS
Wind Visibility Clouds Conditions
70° at 19 knots
 Gusting to 29 knots
10,000+ meters
  • No significant clouds
TAF COR UAOO 251700Z 2518/2603 05004MPS CAVOK BECMG 2601/2603 07010G15MPS
Issued Sep-25 @ 17:00 UTC
(2 hours ago)
Valid From Sep-25 @ 18:00 UTC
(an hour ago)
Valid To Sep-26 @ 03:00 UTC
(in 8 hours)
Sep-25 @ 18:00 - Sep-26 @ 01:00
Wind Visibility
50° at 8 knots 10,000+ meters
Clouds
  • No significant clouds
Conditions
Becoming Sep-26 @ 01:00 - Sep-26 @ 03:00
Wind Visibility
70° at 19 knots
 Gusting to 29 knots
10,000+ meters
Clouds
  • No significant clouds
Conditions